Terminal Aerodrome Forecast
Issued by NWS Pendleton, OR

Home | Current Version | Previous Version | Text Only | Print | Product List | Glossary On
Versions: 1 2 3 4 5 6 7 8 9 10 11 12 13 14 15 16 17 18 19
981
FTUS46 KPDT 051721
TAFPDT
TAF
KPDT 051721Z 0518/0618 28006KT P6SM SCT040 BKN150
     FM052300 35008KT P6SM -SHRA SCT060 BKN100
      TEMPO 0600/0603 VRB25G40KT -TSRA BKN050CB OVC080
     FM060400 14007KT P6SM VCSH SCT060 OVC100
     FM061000 VRB04KT P6SM BKN100
     FM061600 28009KT P6SM SCT100 BKN200=

USA.gov is the U.S. government's official web portal to all federal, state and local government web resources and services.